createdAt,value
2018-12-01T00:02:27.797Z,7.93
2018-12-01T00:07:50.029Z,7.53
2018-12-01T00:12:56.354Z,28.13
2018-12-01T00:18:01.746Z,8.53
2018-12-01T00:23:07.626Z,9.53
2018-12-01T00:28:12.994Z,8.68
2018-12-01T00:33:19.572Z,6.37
2018-12-01T00:38:24.886Z,6.63
2018-12-01T00:43:30.147Z,8.40
2018-12-01T00:48:35.446Z,8.23
2018-12-01T00:53:40.756Z,19.93
2018-12-01T00:58:46.113Z,37.33
2018-12-01T01:03:52.512Z,28.20
2018-12-01T01:08:57.838Z,8.73
2018-12-01T01:14:04.130Z,8.40
2018-12-01T01:19:09.388Z,7.83
2018-12-01T01:29:37.965Z,9.87
2018-12-01T01:34:52.827Z,18.23
2018-12-01T01:40:16.859Z,9.97
2018-12-01T01:45:30.463Z,8.70
2018-12-01T01:50:42.561Z,10.77
2018-12-01T01:55:47.923Z,10.07
2018-12-01T02:00:53.277Z,8.97
2018-12-01T02:06:04.237Z,9.48
2018-12-01T02:11:17.328Z,7.90
2018-12-01T02:16:27.451Z,8.13
2018-12-01T02:21:33.818Z,8.87
2018-12-01T02:26:43.576Z,20.50
2018-12-01T02:31:53.327Z,15.10
2018-12-01T02:37:01.399Z,9.87
2018-12-01T02:42:12.458Z,9.00
2018-12-01T02:47:17.912Z,9.17
2018-12-01T02:52:23.284Z,9.85
2018-12-01T02:57:29.846Z,14.07
2018-12-01T03:02:45.116Z,10.13
2018-12-01T03:07:50.416Z,7.13
2018-12-01T03:12:55.760Z,9.33
2018-12-01T03:18:04.791Z,8.67
2018-12-01T03:23:10.532Z,8.23
2018-12-01T03:28:15.827Z,11.47
2018-12-01T03:33:21.943Z,9.90
2018-12-01T03:38:32.149Z,8.57
2018-12-01T03:44:02.404Z,8.23
2018-12-01T03:49:10.757Z,8.78
2018-12-01T03:54:17.662Z,10.20
2018-12-01T03:59:23.005Z,10.30
2018-12-01T04:04:31.010Z,8.97
2018-12-01T04:09:36.293Z,9.58
2018-12-01T04:14:42.546Z,14.83
2018-12-01T04:19:47.997Z,12.13
2018-12-01T04:24:53.311Z,12.50
2018-12-01T04:29:58.700Z,8.13
2018-12-01T04:35:07.554Z,8.90
2018-12-01T04:40:12.912Z,10.97
2018-12-01T04:45:18.609Z,8.00
2018-12-01T04:50:27.775Z,11.07
2018-12-01T04:55:34.266Z,9.17
2018-12-01T05:00:40.574Z,9.07
2018-12-01T05:05:46.879Z,8.37
2018-12-01T05:10:53.210Z,8.87
2018-12-01T05:16:00.841Z,11.13
2018-12-01T05:21:07.985Z,8.88
2018-12-01T05:26:14.769Z,7.78
2018-12-01T05:31:20.111Z,8.13
2018-12-01T05:36:25.522Z,16.37
2018-12-01T05:41:30.840Z,15.23
2018-12-01T05:46:40.550Z,9.73
2018-12-01T05:51:50.273Z,13.27
2018-12-01T05:56:58.692Z,12.73
2018-12-01T06:02:04.015Z,10.50
2018-12-01T06:07:12.110Z,10.97
2018-12-01T06:12:18.470Z,110.42
2018-12-01T06:17:24.682Z,216.50
2018-12-01T06:22:30.022Z,83.10
2018-12-01T06:27:39.543Z,25.90
2018-12-01T06:32:47.157Z,26.93
2018-12-01T06:37:52.467Z,16.60
2018-12-01T06:42:57.742Z,30.10
2018-12-01T06:48:03.070Z,19.17
2018-12-01T06:53:08.381Z,11.23
2018-12-01T06:58:14.838Z,11.80
2018-12-01T07:03:21.137Z,9.30
2018-12-01T07:08:26.444Z,14.13
2018-12-01T07:13:31.761Z,14.93
2018-12-01T07:18:48.075Z,16.37
2018-12-01T07:23:53.416Z,13.77
2018-12-01T07:28:58.684Z,23.97
2018-12-01T07:34:04.203Z,93.63
2018-12-01T07:39:10.230Z,22.53
2018-12-01T07:44:16.055Z,26.57
2018-12-01T07:49:21.388Z,52.10
2018-12-01T07:54:26.703Z,14.93
2018-12-01T07:59:31.986Z,47.23
2018-12-01T08:04:38.225Z,12.50
2018-12-01T08:09:43.546Z,11.50
2018-12-01T08:14:48.838Z,11.93
2018-12-01T08:19:54.173Z,12.57
2018-12-01T08:24:59.491Z,10.85
2018-12-01T08:30:11.906Z,13.37
2018-12-01T08:35:17.247Z,12.28
2018-12-01T08:40:23.987Z,12.33
2018-12-01T08:45:29.611Z,19.00
2018-12-01T08:50:34.917Z,17.87
2018-12-01T08:55:40.218Z,10.47
2018-12-01T09:00:49.851Z,10.50
2018-12-01T09:05:56.713Z,18.43
2018-12-01T09:11:03.013Z,90.10
2018-12-01T09:16:11.452Z,31.27
2018-12-01T09:21:17.972Z,16.37
2018-12-01T09:26:23.301Z,89.60
2018-12-01T09:31:28.573Z,79.93
2018-12-01T09:36:35.413Z,23.90
2018-12-01T09:41:40.778Z,28.10
2018-12-01T09:46:48.314Z,33.23
2018-12-01T09:51:54.017Z,30.50
2018-12-01T09:56:59.544Z,17.77
2018-12-01T10:02:07.234Z,25.63
2018-12-01T10:07:16.380Z,19.05
2018-12-01T10:12:21.697Z,17.13
2018-12-01T10:17:26.985Z,19.40
2018-12-01T10:22:32.274Z,15.43
2018-12-01T10:27:38.343Z,40.20
2018-12-01T10:32:43.733Z,28.90
2018-12-01T10:38:19.138Z,14.87
2018-12-01T10:43:25.110Z,33.67
2018-12-01T10:48:31.359Z,56.87
2018-12-01T10:53:45.832Z,19.13
2018-12-01T10:59:45.087Z,44.30
2018-12-01T11:04:50.445Z,38.23
2018-12-01T11:09:56.352Z,23.23
2018-12-01T11:15:03.003Z,37.00
2018-12-01T11:20:10.665Z,20.80
2018-12-01T11:25:16.131Z,22.15
2018-12-01T11:30:21.427Z,18.20
2018-12-01T11:35:26.748Z,23.27
2018-12-01T11:40:38.997Z,18.90
2018-12-01T11:45:44.330Z,19.50
2018-12-01T11:50:49.679Z,28.07
2018-12-01T11:56:03.746Z,25.63
2018-12-01T12:01:09.105Z,19.80
2018-12-01T12:06:14.487Z,28.90
2018-12-01T12:11:19.794Z,22.57
2018-12-01T12:16:25.063Z,21.47
2018-12-01T12:21:30.471Z,27.40
2018-12-01T12:26:35.833Z,34.53
2018-12-01T12:31:41.198Z,25.90
2018-12-01T12:36:47.601Z,23.73
2018-12-01T12:41:52.890Z,24.07
2018-12-01T12:46:58.204Z,22.87
2018-12-01T12:52:03.502Z,21.20
2018-12-01T12:57:08.843Z,19.80
2018-12-01T13:02:15.294Z,19.00
2018-12-01T13:07:20.632Z,18.33
2018-12-01T13:12:26.037Z,19.67
2018-12-01T13:17:31.362Z,18.80
2018-12-01T13:22:36.718Z,20.57
2018-12-01T13:27:43.423Z,18.07
2018-12-01T13:33:01.902Z,21.00
2018-12-01T13:38:07.635Z,42.63
2018-12-01T13:43:13.094Z,29.82
2018-12-01T13:48:57.170Z,34.90
2018-12-01T13:54:02.490Z,23.47
2018-12-01T13:59:07.841Z,28.67
2018-12-01T14:04:14.206Z,19.00
2018-12-01T14:09:20.834Z,56.75
2018-12-01T14:14:26.239Z,152.80
2018-12-01T14:19:33.307Z,119.33
2018-12-01T14:24:39.685Z,72.53
2018-12-01T14:29:48.374Z,38.77
2018-12-01T14:34:54.828Z,86.77
2018-12-01T14:40:01.745Z,109.83
2018-12-01T14:45:11.683Z,49.37
2018-12-01T14:50:22.679Z,40.43
2018-12-01T14:55:28.018Z,52.83
2018-12-01T15:00:35.347Z,35.57
2018-12-01T15:05:41.572Z,39.83
2018-12-01T15:10:46.999Z,32.73
2018-12-01T15:15:52.427Z,27.63
2018-12-01T15:21:01.427Z,34.10
2018-12-01T15:26:15.961Z,30.99
2018-12-01T15:31:21.297Z,27.73
2018-12-01T15:36:26.686Z,26.63
2018-12-01T15:41:32.152Z,30.30
2018-12-01T15:46:46.588Z,30.95
2018-12-01T15:51:52.528Z,33.43
2018-12-01T15:56:58.967Z,27.43
2018-12-01T16:02:07.731Z,29.30
2018-12-01T16:07:14.291Z,29.07
2018-12-01T16:12:19.890Z,41.87
2018-12-01T16:17:26.307Z,31.83
2018-12-01T16:22:32.654Z,46.17
2018-12-01T16:27:39.050Z,31.67
2018-12-01T16:32:49.432Z,53.47
2018-12-01T16:37:57.388Z,142.90
2018-12-01T16:43:04.558Z,36.30
2018-12-01T16:48:09.969Z,39.18
2018-12-01T16:53:16.853Z,38.13
2018-12-01T16:58:22.215Z,36.58
2018-12-01T17:03:27.575Z,60.37
2018-12-01T17:08:36.263Z,46.73
2018-12-01T17:13:42.554Z,52.43
2018-12-01T17:18:48.270Z,47.37
2018-12-01T17:23:53.841Z,40.52
2018-12-01T17:28:59.190Z,42.60
2018-12-01T17:34:05.420Z,50.63
2018-12-01T17:39:13.322Z,61.03
2018-12-01T17:44:18.669Z,57.23
2018-12-01T17:49:24.100Z,55.13
2018-12-01T17:54:29.568Z,61.40
2018-12-01T17:59:34.914Z,97.33
2018-12-01T18:04:40.754Z,55.60
2018-12-01T18:09:46.072Z,128.10
2018-12-01T18:14:52.986Z,106.17
2018-12-01T18:20:14.059Z,61.83
2018-12-01T18:25:19.615Z,55.33
2018-12-01T18:30:36.864Z,47.43
2018-12-01T18:35:43.712Z,48.07
2018-12-01T18:40:49.988Z,60.40
2018-12-01T18:45:58.537Z,62.50
2018-12-01T18:51:05.055Z,112.13
2018-12-01T18:56:28.058Z,93.07
2018-12-01T19:01:37.535Z,48.90
2018-12-01T19:06:42.861Z,48.23
2018-12-01T19:11:48.484Z,103.37
2018-12-01T19:16:54.981Z,106.70
2018-12-01T19:22:02.319Z,118.63
2018-12-01T19:27:08.641Z,67.40
2018-12-01T19:32:14.090Z,81.92
2018-12-01T19:37:22.334Z,77.55
2018-12-01T19:42:34.438Z,63.20
2018-12-01T19:47:40.775Z,64.63
2018-12-01T19:52:46.212Z,55.60
2018-12-01T19:57:56.642Z,61.43
2018-12-01T20:03:08.726Z,64.93
2018-12-01T20:08:17.480Z,124.97
2018-12-01T20:13:30.193Z,63.28
2018-12-01T20:18:35.493Z,82.83
2018-12-01T20:23:41.083Z,149.33
2018-12-01T20:28:47.406Z,73.40
2018-12-01T20:33:55.111Z,52.93
2018-12-01T20:39:10.869Z,83.70
2018-12-01T20:44:16.234Z,61.07
2018-12-01T20:49:22.477Z,46.35
2018-12-01T20:54:45.655Z,46.03
2018-12-01T20:59:53.331Z,59.87
2018-12-01T21:05:00.277Z,60.17
2018-12-01T21:10:10.091Z,60.27
2018-12-01T21:15:15.738Z,58.97
2018-12-01T21:20:22.168Z,55.38
2018-12-01T21:25:30.973Z,62.07
2018-12-01T21:30:36.344Z,88.87
2018-12-01T21:35:41.686Z,87.43
2018-12-01T21:40:49.380Z,120.93
2018-12-01T21:45:57.963Z,55.97
2018-12-01T21:51:04.045Z,137.07
2018-12-01T21:56:11.569Z,118.53
2018-12-01T22:01:20.778Z,58.10
2018-12-01T22:06:28.055Z,53.27
2018-12-01T22:11:37.397Z,104.03
2018-12-01T22:16:43.783Z,66.00
2018-12-01T22:21:50.082Z,88.40
2018-12-01T22:26:55.422Z,95.67
2018-12-01T22:32:00.787Z,56.83
2018-12-01T22:37:06.304Z,120.53
2018-12-01T22:42:11.843Z,71.27
2018-12-01T22:47:17.230Z,112.40
2018-12-01T22:52:23.627Z,71.23
2018-12-01T22:57:30.998Z,79.10
2018-12-01T23:02:37.149Z,94.50
2018-12-01T23:07:42.488Z,77.77
2018-12-01T23:12:48.959Z,54.40
2018-12-01T23:17:55.217Z,84.37
2018-12-01T23:23:00.541Z,59.17
2018-12-01T23:28:07.362Z,56.87
2018-12-01T23:33:15.885Z,81.77
2018-12-01T23:38:21.193Z,63.47
2018-12-01T23:43:27.425Z,55.50
2018-12-01T23:48:32.724Z,62.80
2018-12-01T23:53:38.039Z,73.03
2018-12-01T23:58:43.346Z,66.97
